sensor_id;sensor_type;location;lat;lon;timestamp;temperature;humidity
1075;DHT22;526;51.392;12.448;2022-10-16T00:01:46;15.50;97.30
1075;DHT22;526;51.392;12.448;2022-10-16T00:04:12;15.50;97.30
1075;DHT22;526;51.392;12.448;2022-10-16T00:06:38;15.50;97.30
1075;DHT22;526;51.392;12.448;2022-10-16T00:09:03;15.50;97.30
1075;DHT22;526;51.392;12.448;2022-10-16T00:11:31;15.40;97.30
1075;DHT22;526;51.392;12.448;2022-10-16T00:14:04;15.30;97.30
1075;DHT22;526;51.392;12.448;2022-10-16T00:16:30;15.20;97.30
1075;DHT22;526;51.392;12.448;2022-10-16T00:18:56;15.10;97.30
1075;DHT22;526;51.392;12.448;2022-10-16T00:21:24;15.00;97.30
1075;DHT22;526;51.392;12.448;2022-10-16T00:24:02;15.00;97.30
1075;DHT22;526;51.392;12.448;2022-10-16T00:26:31;14.90;97.30
1075;DHT22;526;51.392;12.448;2022-10-16T00:28:57;14.90;97.30
1075;DHT22;526;51.392;12.448;2022-10-16T00:31:23;14.90;97.30
1075;DHT22;526;51.392;12.448;2022-10-16T00:33:49;14.90;97.30
1075;DHT22;526;51.392;12.448;2022-10-16T00:36:18;14.90;97.30
1075;DHT22;526;51.392;12.448;2022-10-16T00:38:44;14.90;97.30
1075;DHT22;526;51.392;12.448;2022-10-16T00:41:15;15.00;97.30
1075;DHT22;526;51.392;12.448;2022-10-16T00:43:47;15.00;97.30
1075;DHT22;526;51.392;12.448;2022-10-16T00:46:37;15.00;97.30
1075;DHT22;526;51.392;12.448;2022-10-16T00:49:13;15.10;97.30
1075;DHT22;526;51.392;12.448;2022-10-16T00:51:42;15.10;97.30
1075;DHT22;526;51.392;12.448;2022-10-16T00:54:14;15.10;97.30
1075;DHT22;526;51.392;12.448;2022-10-16T00:56:42;15.20;97.30
1075;DHT22;526;51.392;12.448;2022-10-16T00:59:15;15.20;97.30
1075;DHT22;526;51.392;12.448;2022-10-16T01:01:41;15.20;97.30
1075;DHT22;526;51.392;12.448;2022-10-16T01:04:09;15.30;97.30
1075;DHT22;526;51.392;12.448;2022-10-16T01:15:19;15.30;97.30
1075;DHT22;526;51.392;12.448;2022-10-16T01:28:21;15.40;97.30
1075;DHT22;526;51.392;12.448;2022-10-16T01:30:51;15.40;97.30
1075;DHT22;526;51.392;12.448;2022-10-16T01:33:24;15.40;97.30
1075;DHT22;526;51.392;12.448;2022-10-16T01:35:58;15.40;97.30
1075;DHT22;526;51.392;12.448;2022-10-16T01:38:33;15.40;97.30
1075;DHT22;526;51.392;12.448;2022-10-16T01:44:11;15.40;97.30
1075;DHT22;526;51.392;12.448;2022-10-16T01:46:31;15.40;97.30
1075;DHT22;526;51.392;12.448;2022-10-16T01:48:57;15.40;97.30
1075;DHT22;526;51.392;12.448;2022-10-16T01:51:25;15.40;97.30
1075;DHT22;526;51.392;12.448;2022-10-16T01:53:54;15.40;97.30
1075;DHT22;526;51.392;12.448;2022-10-16T01:56:21;15.40;97.30
1075;DHT22;526;51.392;12.448;2022-10-16T01:59:00;15.40;97.30
1075;DHT22;526;51.392;12.448;2022-10-16T02:01:29;15.40;97.30
1075;DHT22;526;51.392;12.448;2022-10-16T02:03:59;15.40;97.30
1075;DHT22;526;51.392;12.448;2022-10-16T02:06:27;15.40;97.30
1075;DHT22;526;51.392;12.448;2022-10-16T02:08:53;15.40;97.30
1075;DHT22;526;51.392;12.448;2022-10-16T02:11:19;15.40;97.30
1075;DHT22;526;51.392;12.448;2022-10-16T02:13:53;15.40;97.30
1075;DHT22;526;51.392;12.448;2022-10-16T02:16:20;15.40;97.30
1075;DHT22;526;51.392;12.448;2022-10-16T02:18:46;15.30;97.30
1075;DHT22;526;51.392;12.448;2022-10-16T02:21:31;15.20;97.30
1075;DHT22;526;51.392;12.448;2022-10-16T02:24:24;15.20;97.30
1075;DHT22;526;51.392;12.448;2022-10-16T02:27:05;15.10;97.30
1075;DHT22;526;51.392;12.448;2022-10-16T02:29:39;15.10;97.30
1075;DHT22;526;51.392;12.448;2022-10-16T02:32:07;15.10;97.30
1075;DHT22;526;51.392;12.448;2022-10-16T02:34:36;15.10;97.30
1075;DHT22;526;51.392;12.448;2022-10-16T02:37:04;15.10;97.30
1075;DHT22;526;51.392;12.448;2022-10-16T02:39:31;15.10;97.30
1075;DHT22;526;51.392;12.448;2022-10-16T02:41:59;15.10;97.30
1075;DHT22;526;51.392;12.448;2022-10-16T02:44:27;15.10;97.30
1075;DHT22;526;51.392;12.448;2022-10-16T02:46:59;15.00;97.30
1075;DHT22;526;51.392;12.448;2022-10-16T02:49:27;15.00;97.30
1075;DHT22;526;51.392;12.448;2022-10-16T02:52:01;15.00;97.30
1075;DHT22;526;51.392;12.448;2022-10-16T02:54:29;15.00;97.30
1075;DHT22;526;51.392;12.448;2022-10-16T02:57:01;15.10;97.30
1075;DHT22;526;51.392;12.448;2022-10-16T02:59:29;15.10;97.30
1075;DHT22;526;51.392;12.448;2022-10-16T03:02:00;15.10;97.30
1075;DHT22;526;51.392;12.448;2022-10-16T03:04:28;15.10;97.30
1075;DHT22;526;51.392;12.448;2022-10-16T03:07:17;15.10;97.30
1075;DHT22;526;51.392;12.448;2022-10-16T03:09:49;15.00;97.30
1075;DHT22;526;51.392;12.448;2022-10-16T03:12:20;15.00;97.30
1075;DHT22;526;51.392;12.448;2022-10-16T03:14:51;15.00;97.30
1075;DHT22;526;51.392;12.448;2022-10-16T03:17:19;15.00;97.30
1075;DHT22;526;51.392;12.448;2022-10-16T03:19:51;14.90;97.30
1075;DHT22;526;51.392;12.448;2022-10-16T03:22:20;14.80;97.30
1075;DHT22;526;51.392;12.448;2022-10-16T03:24:52;14.80;97.30
1075;DHT22;526;51.392;12.448;2022-10-16T03:27:37;14.80;97.30
1075;DHT22;526;51.392;12.448;2022-10-16T03:30:08;14.80;97.30
1075;DHT22;526;51.392;12.448;2022-10-16T03:32:34;14.80;97.30
1075;DHT22;526;51.392;12.448;2022-10-16T03:35:07;14.80;97.30
1075;DHT22;526;51.392;12.448;2022-10-16T03:37:32;14.80;97.30
1075;DHT22;526;51.392;12.448;2022-10-16T03:40:01;14.80;97.30
1075;DHT22;526;51.392;12.448;2022-10-16T03:42:27;14.80;97.30
1075;DHT22;526;51.392;12.448;2022-10-16T03:44:53;14.80;97.30
1075;DHT22;526;51.392;12.448;2022-10-16T03:47:18;14.80;97.30
1075;DHT22;526;51.392;12.448;2022-10-16T03:49:47;14.80;97.30
1075;DHT22;526;51.392;12.448;2022-10-16T03:52:13;14.80;97.30
1075;DHT22;526;51.392;12.448;2022-10-16T03:54:38;14.80;97.30
1075;DHT22;526;51.392;12.448;2022-10-16T03:57:04;14.80;97.30
1075;DHT22;526;51.392;12.448;2022-10-16T03:59:30;14.80;97.30
1075;DHT22;526;51.392;12.448;2022-10-16T04:01:55;14.80;97.30
1075;DHT22;526;51.392;12.448;2022-10-16T04:04:20;14.80;97.30
1075;DHT22;526;51.392;12.448;2022-10-16T04:06:46;14.70;97.30
1075;DHT22;526;51.392;12.448;2022-10-16T04:09:12;14.70;97.30
1075;DHT22;526;51.392;12.448;2022-10-16T04:11:37;14.70;97.30
1075;DHT22;526;51.392;12.448;2022-10-16T04:14:03;14.70;97.30
1075;DHT22;526;51.392;12.448;2022-10-16T04:16:28;14.70;97.30
1075;DHT22;526;51.392;12.448;2022-10-16T04:18:54;14.70;97.30
1075;DHT22;526;51.392;12.448;2022-10-16T04:21:19;14.80;97.30
1075;DHT22;526;51.392;12.448;2022-10-16T04:23:45;14.80;97.30
1075;DHT22;526;51.392;12.448;2022-10-16T04:26:10;14.80;97.30
1075;DHT22;526;51.392;12.448;2022-10-16T04:28:36;14.80;97.30
1075;DHT22;526;51.392;12.448;2022-10-16T04:31:04;14.70;97.30
1075;DHT22;526;51.392;12.448;2022-10-16T04:33:30;14.70;97.30
1075;DHT22;526;51.392;12.448;2022-10-16T04:36:02;14.70;97.30
1075;DHT22;526;51.392;12.448;2022-10-16T04:38:28;14.70;97.30
1075;DHT22;526;51.392;12.448;2022-10-16T04:40:54;14.60;97.30
1075;DHT22;526;51.392;12.448;2022-10-16T04:43:20;14.60;97.30
1075;DHT22;526;51.392;12.448;2022-10-16T04:45:45;14.60;97.30
1075;DHT22;526;51.392;12.448;2022-10-16T04:48:11;14.50;97.30
1075;DHT22;526;51.392;12.448;2022-10-16T04:50:37;14.50;97.30
1075;DHT22;526;51.392;12.448;2022-10-16T04:53:02;14.50;97.30
1075;DHT22;526;51.392;12.448;2022-10-16T04:55:28;14.50;97.30
1075;DHT22;526;51.392;12.448;2022-10-16T04:57:53;14.50;97.30
1075;DHT22;526;51.392;12.448;2022-10-16T05:00:19;14.50;97.30
1075;DHT22;526;51.392;12.448;2022-10-16T05:02:45;14.50;97.30
1075;DHT22;526;51.392;12.448;2022-10-16T05:05:10;14.50;97.30
1075;DHT22;526;51.392;12.448;2022-10-16T05:07:37;14.50;97.30
1075;DHT22;526;51.392;12.448;2022-10-16T05:10:02;14.60;97.30
1075;DHT22;526;51.392;12.448;2022-10-16T05:12:28;14.60;97.30
1075;DHT22;526;51.392;12.448;2022-10-16T05:14:54;14.60;97.30
1075;DHT22;526;51.392;12.448;2022-10-16T05:17:24;14.60;97.30
1075;DHT22;526;51.392;12.448;2022-10-16T05:19:50;14.60;97.30
1075;DHT22;526;51.392;12.448;2022-10-16T05:22:15;14.60;97.30
1075;DHT22;526;51.392;12.448;2022-10-16T05:27:14;14.60;97.30
1075;DHT22;526;51.392;12.448;2022-10-16T05:29:48;14.60;97.30
1075;DHT22;526;51.392;12.448;2022-10-16T05:32:15;14.60;97.30
1075;DHT22;526;51.392;12.448;2022-10-16T05:34:41;14.70;97.30
1075;DHT22;526;51.392;12.448;2022-10-16T05:37:07;14.60;97.30
1075;DHT22;526;51.392;12.448;2022-10-16T05:39:32;14.70;97.30
1075;DHT22;526;51.392;12.448;2022-10-16T05:41:58;14.70;97.30
1075;DHT22;526;51.392;12.448;2022-10-16T05:44:24;14.70;97.30
1075;DHT22;526;51.392;12.448;2022-10-16T05:46:49;14.70;97.30
1075;DHT22;526;51.392;12.448;2022-10-16T05:49:15;14.70;97.30
1075;DHT22;526;51.392;12.448;2022-10-16T05:51:41;14.70;97.30
1075;DHT22;526;51.392;12.448;2022-10-16T05:54:07;14.70;97.30
1075;DHT22;526;51.392;12.448;2022-10-16T05:56:33;14.60;97.30
1075;DHT22;526;51.392;12.448;2022-10-16T05:58:58;14.60;97.30
1075;DHT22;526;51.392;12.448;2022-10-16T06:01:24;14.70;97.30
1075;DHT22;526;51.392;12.448;2022-10-16T06:03:51;14.70;97.30
1075;DHT22;526;51.392;12.448;2022-10-16T06:06:19;14.70;97.30
1075;DHT22;526;51.392;12.448;2022-10-16T06:08:46;14.80;97.30
1075;DHT22;526;51.392;12.448;2022-10-16T06:11:15;14.80;97.30
1075;DHT22;526;51.392;12.448;2022-10-16T06:13:41;14.80;97.30
1075;DHT22;526;51.392;12.448;2022-10-16T06:16:08;14.90;97.30
1075;DHT22;526;51.392;12.448;2022-10-16T06:18:34;15.00;97.30
1075;DHT22;526;51.392;12.448;2022-10-16T06:20:59;15.00;97.30
1075;DHT22;526;51.392;12.448;2022-10-16T06:23:31;15.00;97.30
1075;DHT22;526;51.392;12.448;2022-10-16T06:26:07;15.10;97.30
1075;DHT22;526;51.392;12.448;2022-10-16T06:28:33;15.10;97.30
1075;DHT22;526;51.392;12.448;2022-10-16T06:31:00;15.10;97.30
1075;DHT22;526;51.392;12.448;2022-10-16T06:33:26;15.20;97.30
1075;DHT22;526;51.392;12.448;2022-10-16T06:35:51;15.20;97.30
1075;DHT22;526;51.392;12.448;2022-10-16T06:38:17;15.20;97.30
1075;DHT22;526;51.392;12.448;2022-10-16T06:40:42;15.20;97.30
1075;DHT22;526;51.392;12.448;2022-10-16T06:43:08;15.30;97.30
1075;DHT22;526;51.392;12.448;2022-10-16T06:45:33;15.30;97.30
1075;DHT22;526;51.392;12.448;2022-10-16T06:47:59;15.30;97.30
1075;DHT22;526;51.392;12.448;2022-10-16T06:50:24;15.40;97.30
1075;DHT22;526;51.392;12.448;2022-10-16T06:52:50;15.50;97.30
1075;DHT22;526;51.392;12.448;2022-10-16T06:55:16;15.50;97.30
1075;DHT22;526;51.392;12.448;2022-10-16T06:57:42;15.50;97.30
1075;DHT22;526;51.392;12.448;2022-10-16T07:00:08;15.50;97.30
1075;DHT22;526;51.392;12.448;2022-10-16T07:02:34;15.60;97.30
1075;DHT22;526;51.392;12.448;2022-10-16T07:04:59;15.60;97.30
1075;DHT22;526;51.392;12.448;2022-10-16T07:07:25;15.60;97.30
1075;DHT22;526;51.392;12.448;2022-10-16T07:09:52;15.70;97.30
1075;DHT22;526;51.392;12.448;2022-10-16T07:12:17;15.70;97.30
1075;DHT22;526;51.392;12.448;2022-10-16T07:14:43;15.70;97.30
1075;DHT22;526;51.392;12.448;2022-10-16T07:17:09;15.70;97.30
1075;DHT22;526;51.392;12.448;2022-10-16T07:19:34;15.80;97.30
1075;DHT22;526;51.392;12.448;2022-10-16T07:22:00;15.80;97.30
1075;DHT22;526;51.392;12.448;2022-10-16T07:24:26;15.90;97.30
1075;DHT22;526;51.392;12.448;2022-10-16T07:26:51;15.90;97.30
1075;DHT22;526;51.392;12.448;2022-10-16T07:29:19;15.90;97.30
1075;DHT22;526;51.392;12.448;2022-10-16T07:31:46;16.00;97.30
1075;DHT22;526;51.392;12.448;2022-10-16T07:34:13;16.00;97.30
1075;DHT22;526;51.392;12.448;2022-10-16T07:36:39;16.00;97.30
1075;DHT22;526;51.392;12.448;2022-10-16T07:39:05;16.00;97.30
1075;DHT22;526;51.392;12.448;2022-10-16T07:41:30;16.10;97.30
1075;DHT22;526;51.392;12.448;2022-10-16T07:43:58;16.10;97.30
1075;DHT22;526;51.392;12.448;2022-10-16T07:46:27;16.10;97.30
1075;DHT22;526;51.392;12.448;2022-10-16T07:48:53;16.10;97.30
1075;DHT22;526;51.392;12.448;2022-10-16T07:51:21;16.20;97.30
1075;DHT22;526;51.392;12.448;2022-10-16T07:53:47;16.30;97.30
1075;DHT22;526;51.392;12.448;2022-10-16T07:56:13;16.30;97.30
1075;DHT22;526;51.392;12.448;2022-10-16T07:58:39;16.40;97.30
1075;DHT22;526;51.392;12.448;2022-10-16T08:01:07;16.50;97.30
1075;DHT22;526;51.392;12.448;2022-10-16T08:03:32;16.70;97.30
1075;DHT22;526;51.392;12.448;2022-10-16T08:05:59;16.80;97.30
1075;DHT22;526;51.392;12.448;2022-10-16T08:08:25;16.80;97.30
1075;DHT22;526;51.392;12.448;2022-10-16T08:10:51;17.00;97.30
1075;DHT22;526;51.392;12.448;2022-10-16T08:13:16;17.00;97.30
1075;DHT22;526;51.392;12.448;2022-10-16T08:15:43;17.20;97.30
1075;DHT22;526;51.392;12.448;2022-10-16T08:18:09;17.30;97.30
1075;DHT22;526;51.392;12.448;2022-10-16T08:20:35;17.60;97.30
1075;DHT22;526;51.392;12.448;2022-10-16T08:23:01;17.80;97.30
1075;DHT22;526;51.392;12.448;2022-10-16T08:25:27;18.10;97.30
1075;DHT22;526;51.392;12.448;2022-10-16T08:27:53;18.40;97.30
1075;DHT22;526;51.392;12.448;2022-10-16T08:30:20;18.50;97.30
1075;DHT22;526;51.392;12.448;2022-10-16T08:32:46;18.50;97.30
1075;DHT22;526;51.392;12.448;2022-10-16T08:35:12;18.50;97.30
1075;DHT22;526;51.392;12.448;2022-10-16T08:37:38;18.40;97.30
1075;DHT22;526;51.392;12.448;2022-10-16T08:40:06;18.40;97.30
1075;DHT22;526;51.392;12.448;2022-10-16T08:48:14;18.40;97.30
1075;DHT22;526;51.392;12.448;2022-10-16T08:50:43;18.50;97.30
1075;DHT22;526;51.392;12.448;2022-10-16T08:53:16;18.60;97.30
1075;DHT22;526;51.392;12.448;2022-10-16T08:55:53;18.70;97.30
1075;DHT22;526;51.392;12.448;2022-10-16T08:58:26;18.70;97.30
1075;DHT22;526;51.392;12.448;2022-10-16T09:00:57;18.60;97.30
1075;DHT22;526;51.392;12.448;2022-10-16T09:16:46;19.00;97.30
1075;DHT22;526;51.392;12.448;2022-10-16T09:19:33;19.20;97.30
1075;DHT22;526;51.392;12.448;2022-10-16T09:22:12;19.50;97.30
1075;DHT22;526;51.392;12.448;2022-10-16T09:24:37;19.50;97.30
1075;DHT22;526;51.392;12.448;2022-10-16T09:27:03;19.60;97.30
1075;DHT22;526;51.392;12.448;2022-10-16T09:29:29;19.70;97.30
1075;DHT22;526;51.392;12.448;2022-10-16T09:31:55;19.60;97.30
1075;DHT22;526;51.392;12.448;2022-10-16T09:34:36;19.50;97.30
1075;DHT22;526;51.392;12.448;2022-10-16T09:37:04;19.50;97.30
1075;DHT22;526;51.392;12.448;2022-10-16T09:39:31;19.50;97.30
1075;DHT22;526;51.392;12.448;2022-10-16T09:42:13;19.50;97.30
1075;DHT22;526;51.392;12.448;2022-10-16T09:44:39;19.50;97.30
1075;DHT22;526;51.392;12.448;2022-10-16T09:47:17;19.60;97.30
1075;DHT22;526;51.392;12.448;2022-10-16T09:49:58;19.70;97.30
1075;DHT22;526;51.392;12.448;2022-10-16T09:52:28;19.80;97.30
1075;DHT22;526;51.392;12.448;2022-10-16T09:54:59;20.00;97.30
1075;DHT22;526;51.392;12.448;2022-10-16T09:57:26;20.10;97.30
1075;DHT22;526;51.392;12.448;2022-10-16T09:59:54;20.20;97.30
1075;DHT22;526;51.392;12.448;2022-10-16T10:02:31;20.30;97.30
1075;DHT22;526;51.392;12.448;2022-10-16T10:04:58;20.30;97.30
1075;DHT22;526;51.392;12.448;2022-10-16T10:07:31;20.40;97.30
1075;DHT22;526;51.392;12.448;2022-10-16T10:10:02;20.40;97.30
1075;DHT22;526;51.392;12.448;2022-10-16T10:12:30;20.20;97.30
1075;DHT22;526;51.392;12.448;2022-10-16T10:15:11;20.10;97.30
1075;DHT22;526;51.392;12.448;2022-10-16T10:17:46;20.00;97.30
1075;DHT22;526;51.392;12.448;2022-10-16T10:20:42;19.90;97.30
1075;DHT22;526;51.392;12.448;2022-10-16T10:23:25;19.90;97.30
1075;DHT22;526;51.392;12.448;2022-10-16T10:31:14;20.30;97.30
1075;DHT22;526;51.392;12.448;2022-10-16T10:36:08;20.40;97.30
1075;DHT22;526;51.392;12.448;2022-10-16T10:39:03;20.40;97.30
1075;DHT22;526;51.392;12.448;2022-10-16T10:50:49;20.40;97.30
1075;DHT22;526;51.392;12.448;2022-10-16T10:53:24;20.30;97.30
1075;DHT22;526;51.392;12.448;2022-10-16T11:04:11;20.10;97.30
1075;DHT22;526;51.392;12.448;2022-10-16T11:06:50;20.00;97.30
1075;DHT22;526;51.392;12.448;2022-10-16T11:09:24;20.00;97.30
1075;DHT22;526;51.392;12.448;2022-10-16T11:14:58;20.10;97.30
1075;DHT22;526;51.392;12.448;2022-10-16T11:20:31;20.10;97.30
1075;DHT22;526;51.392;12.448;2022-10-16T11:25:52;20.10;97.30
1075;DHT22;526;51.392;12.448;2022-10-16T11:28:51;20.10;97.30
1075;DHT22;526;51.392;12.448;2022-10-16T11:31:50;20.10;97.30
1075;DHT22;526;51.392;12.448;2022-10-16T11:34:53;20.10;97.30
1075;DHT22;526;51.392;12.448;2022-10-16T11:37:53;20.10;97.30
1075;DHT22;526;51.392;12.448;2022-10-16T11:41:04;20.20;97.30
1075;DHT22;526;51.392;12.448;2022-10-16T11:44:25;20.30;97.30
1075;DHT22;526;51.392;12.448;2022-10-16T11:50:48;20.40;97.30
1075;DHT22;526;51.392;12.448;2022-10-16T11:53:20;20.40;97.30
1075;DHT22;526;51.392;12.448;2022-10-16T11:55:47;20.40;97.30
1075;DHT22;526;51.392;12.448;2022-10-16T12:00:59;20.40;97.30
1075;DHT22;526;51.392;12.448;2022-10-16T12:03:28;20.30;97.30
1075;DHT22;526;51.392;12.448;2022-10-16T12:06:25;20.30;97.30
1075;DHT22;526;51.392;12.448;2022-10-16T12:08:53;20.30;97.30
1075;DHT22;526;51.392;12.448;2022-10-16T12:11:33;20.30;97.30
1075;DHT22;526;51.392;12.448;2022-10-16T12:17:02;20.40;97.30
1075;DHT22;526;51.392;12.448;2022-10-16T12:19:31;20.50;97.30
1075;DHT22;526;51.392;12.448;2022-10-16T12:25:17;20.60;97.30
1075;DHT22;526;51.392;12.448;2022-10-16T12:28:04;20.60;97.30
1075;DHT22;526;51.392;12.448;2022-10-16T12:31:12;20.60;97.30
1075;DHT22;526;51.392;12.448;2022-10-16T12:33:43;20.60;97.30
1075;DHT22;526;51.392;12.448;2022-10-16T12:36:33;20.70;97.30
1075;DHT22;526;51.392;12.448;2022-10-16T12:39:00;20.70;97.30
1075;DHT22;526;51.392;12.448;2022-10-16T12:42:02;20.80;97.30
1075;DHT22;526;51.392;12.448;2022-10-16T12:45:12;21.00;97.30
1075;DHT22;526;51.392;12.448;2022-10-16T12:47:52;21.20;97.30
1075;DHT22;526;51.392;12.448;2022-10-16T12:50:33;21.30;97.30
1075;DHT22;526;51.392;12.448;2022-10-16T12:53:23;21.40;97.30
1075;DHT22;526;51.392;12.448;2022-10-16T12:56:43;21.50;97.30
1075;DHT22;526;51.392;12.448;2022-10-16T13:05:59;21.20;97.30
1075;DHT22;526;51.392;12.448;2022-10-16T13:11:48;20.80;97.30
1075;DHT22;526;51.392;12.448;2022-10-16T13:17:59;21.30;97.30
1075;DHT22;526;51.392;12.448;2022-10-16T13:20:34;21.50;97.30
1075;DHT22;526;51.392;12.448;2022-10-16T13:23:09;21.90;96.90
1075;DHT22;526;51.392;12.448;2022-10-16T13:28:22;22.50;95.80
1075;DHT22;526;51.392;12.448;2022-10-16T13:30:54;22.90;95.10
1075;DHT22;526;51.392;12.448;2022-10-16T13:33:37;23.30;94.10
1075;DHT22;526;51.392;12.448;2022-10-16T13:36:05;23.40;93.10
1075;DHT22;526;51.392;12.448;2022-10-16T13:38:35;23.50;93.20
1075;DHT22;526;51.392;12.448;2022-10-16T13:41:03;23.80;92.60
1075;DHT22;526;51.392;12.448;2022-10-16T13:46:15;23.90;91.40
1075;DHT22;526;51.392;12.448;2022-10-16T13:48:42;23.70;91.30
1075;DHT22;526;51.392;12.448;2022-10-16T13:51:14;23.80;91.80
1075;DHT22;526;51.392;12.448;2022-10-16T13:53:40;23.80;91.60
1075;DHT22;526;51.392;12.448;2022-10-16T13:56:11;23.60;91.90
1075;DHT22;526;51.392;12.448;2022-10-16T13:58:36;23.30;92.30
1075;DHT22;526;51.392;12.448;2022-10-16T14:01:04;23.20;92.90
1075;DHT22;526;51.392;12.448;2022-10-16T14:03:31;23.40;92.70
1075;DHT22;526;51.392;12.448;2022-10-16T14:06:03;23.50;92.20
1075;DHT22;526;51.392;12.448;2022-10-16T14:08:30;23.30;92.70
1075;DHT22;526;51.392;12.448;2022-10-16T14:10:58;22.90;92.80
1075;DHT22;526;51.392;12.448;2022-10-16T14:13:44;22.90;93.70
1075;DHT22;526;51.392;12.448;2022-10-16T14:16:16;22.90;93.60
1075;DHT22;526;51.392;12.448;2022-10-16T14:18:46;22.60;93.80
1075;DHT22;526;51.392;12.448;2022-10-16T14:21:16;22.40;94.30
1075;DHT22;526;51.392;12.448;2022-10-16T14:23:42;22.10;95.10
1075;DHT22;526;51.392;12.448;2022-10-16T14:28:36;21.70;96.30
1075;DHT22;526;51.392;12.448;2022-10-16T14:31:26;21.60;96.70
1075;DHT22;526;51.392;12.448;2022-10-16T14:33:51;21.50;97.00
1075;DHT22;526;51.392;12.448;2022-10-16T14:36:17;21.40;97.20
1075;DHT22;526;51.392;12.448;2022-10-16T14:41:21;21.30;97.30
1075;DHT22;526;51.392;12.448;2022-10-16T14:43:51;21.40;97.30
1075;DHT22;526;51.392;12.448;2022-10-16T14:46:20;21.40;97.30
1075;DHT22;526;51.392;12.448;2022-10-16T14:48:48;21.40;97.30
1075;DHT22;526;51.392;12.448;2022-10-16T14:51:16;21.60;97.30
1075;DHT22;526;51.392;12.448;2022-10-16T14:53:42;21.90;97.10
1075;DHT22;526;51.392;12.448;2022-10-16T14:56:33;22.10;96.50
1075;DHT22;526;51.392;12.448;2022-10-16T14:59:35;22.20;95.60
1075;DHT22;526;51.392;12.448;2022-10-16T15:02:51;22.20;95.60
1075;DHT22;526;51.392;12.448;2022-10-16T15:05:32;22.40;95.60
1075;DHT22;526;51.392;12.448;2022-10-16T15:08:21;22.60;95.10
1075;DHT22;526;51.392;12.448;2022-10-16T15:10:53;22.70;94.90
1075;DHT22;526;51.392;12.448;2022-10-16T15:13:50;22.70;95.20
1075;DHT22;526;51.392;12.448;2022-10-16T15:16:22;22.90;95.10
1075;DHT22;526;51.392;12.448;2022-10-16T15:18:50;23.20;95.00
1075;DHT22;526;51.392;12.448;2022-10-16T15:21:31;23.30;94.90
1075;DHT22;526;51.392;12.448;2022-10-16T15:23:57;23.30;95.00
1075;DHT22;526;51.392;12.448;2022-10-16T15:26:25;23.30;95.10
1075;DHT22;526;51.392;12.448;2022-10-16T15:28:51;23.10;95.30
1075;DHT22;526;51.392;12.448;2022-10-16T15:31:17;22.90;95.70
1075;DHT22;526;51.392;12.448;2022-10-16T15:33:50;22.60;96.20
1075;DHT22;526;51.392;12.448;2022-10-16T15:36:19;22.40;96.90
1075;DHT22;526;51.392;12.448;2022-10-16T15:38:49;22.00;97.30
1075;DHT22;526;51.392;12.448;2022-10-16T15:41:31;21.70;97.30
1075;DHT22;526;51.392;12.448;2022-10-16T15:44:03;21.40;97.30
1075;DHT22;526;51.392;12.448;2022-10-16T15:47:01;21.10;97.30
1075;DHT22;526;51.392;12.448;2022-10-16T15:49:33;20.90;97.30
1075;DHT22;526;51.392;12.448;2022-10-16T15:52:22;20.80;97.30
1075;DHT22;526;51.392;12.448;2022-10-16T15:55:31;20.60;97.30
1075;DHT22;526;51.392;12.448;2022-10-16T15:58:10;20.50;97.30
1075;DHT22;526;51.392;12.448;2022-10-16T16:00:42;20.30;97.30
1075;DHT22;526;51.392;12.448;2022-10-16T16:03:11;20.20;97.30
1075;DHT22;526;51.392;12.448;2022-10-16T16:05:40;20.10;97.30
1075;DHT22;526;51.392;12.448;2022-10-16T16:08:08;20.10;97.30
1075;DHT22;526;51.392;12.448;2022-10-16T16:10:33;20.00;97.30
1075;DHT22;526;51.392;12.448;2022-10-16T16:13:11;20.00;97.30
1075;DHT22;526;51.392;12.448;2022-10-16T16:16:13;19.90;97.30
1075;DHT22;526;51.392;12.448;2022-10-16T16:18:53;19.90;97.30
1075;DHT22;526;51.392;12.448;2022-10-16T16:22:01;19.80;97.30
1075;DHT22;526;51.392;12.448;2022-10-16T16:24:32;19.70;97.30
1075;DHT22;526;51.392;12.448;2022-10-16T16:27:02;19.70;97.30
1075;DHT22;526;51.392;12.448;2022-10-16T16:29:32;19.60;97.30
1075;DHT22;526;51.392;12.448;2022-10-16T16:32:11;19.50;97.30
1075;DHT22;526;51.392;12.448;2022-10-16T16:34:39;19.40;97.30
1075;DHT22;526;51.392;12.448;2022-10-16T16:37:13;19.30;97.30
1075;DHT22;526;51.392;12.448;2022-10-16T16:39:38;19.20;97.30
1075;DHT22;526;51.392;12.448;2022-10-16T16:42:04;19.10;97.30
1075;DHT22;526;51.392;12.448;2022-10-16T16:44:32;19.10;97.30
1075;DHT22;526;51.392;12.448;2022-10-16T16:46:57;19.00;97.30
1075;DHT22;526;51.392;12.448;2022-10-16T16:49:23;18.90;97.30
1075;DHT22;526;51.392;12.448;2022-10-16T16:51:49;18.90;97.30
1075;DHT22;526;51.392;12.448;2022-10-16T16:54:14;18.80;97.30
1075;DHT22;526;51.392;12.448;2022-10-16T16:56:47;18.70;97.30
1075;DHT22;526;51.392;12.448;2022-10-16T16:59:14;18.70;97.30
1075;DHT22;526;51.392;12.448;2022-10-16T17:01:41;18.60;97.30
1075;DHT22;526;51.392;12.448;2022-10-16T17:04:07;18.50;97.30
1075;DHT22;526;51.392;12.448;2022-10-16T17:06:32;18.40;97.30
1075;DHT22;526;51.392;12.448;2022-10-16T17:12:03;18.30;97.30
1075;DHT22;526;51.392;12.448;2022-10-16T17:14:31;18.20;97.30
1075;DHT22;526;51.392;12.448;2022-10-16T17:17:24;18.10;97.30
1075;DHT22;526;51.392;12.448;2022-10-16T17:20:03;18.10;97.30
1075;DHT22;526;51.392;12.448;2022-10-16T17:22:41;18.00;97.30
1075;DHT22;526;51.392;12.448;2022-10-16T17:28:00;18.00;97.30
1075;DHT22;526;51.392;12.448;2022-10-16T17:30:32;18.00;97.30
1075;DHT22;526;51.392;12.448;2022-10-16T17:33:03;17.90;97.30
1075;DHT22;526;51.392;12.448;2022-10-16T17:35:51;17.80;97.30
1075;DHT22;526;51.392;12.448;2022-10-16T17:38:22;17.80;97.30
1075;DHT22;526;51.392;12.448;2022-10-16T17:40:51;17.80;97.30
1075;DHT22;526;51.392;12.448;2022-10-16T17:43:23;17.80;97.30
1075;DHT22;526;51.392;12.448;2022-10-16T17:46:13;17.80;97.30
1075;DHT22;526;51.392;12.448;2022-10-16T17:48:52;17.70;97.30
1075;DHT22;526;51.392;12.448;2022-10-16T17:51:23;17.70;97.30
1075;DHT22;526;51.392;12.448;2022-10-16T17:53:51;17.60;97.30
1075;DHT22;526;51.392;12.448;2022-10-16T17:56:20;17.60;97.30
1075;DHT22;526;51.392;12.448;2022-10-16T17:58:51;17.60;97.30
1075;DHT22;526;51.392;12.448;2022-10-16T18:01:23;17.60;97.30
1075;DHT22;526;51.392;12.448;2022-10-16T18:03:55;17.50;97.30
1075;DHT22;526;51.392;12.448;2022-10-16T18:06:21;17.50;97.30
1075;DHT22;526;51.392;12.448;2022-10-16T18:09:06;17.50;97.30
1075;DHT22;526;51.392;12.448;2022-10-16T18:12:20;17.40;97.30
1075;DHT22;526;51.392;12.448;2022-10-16T18:15:24;17.40;97.30
1075;DHT22;526;51.392;12.448;2022-10-16T18:18:23;17.40;97.30
1075;DHT22;526;51.392;12.448;2022-10-16T18:24:33;17.40;97.30
1075;DHT22;526;51.392;12.448;2022-10-16T18:27:31;17.30;97.30
1075;DHT22;526;51.392;12.448;2022-10-16T18:30:12;17.30;97.30
1075;DHT22;526;51.392;12.448;2022-10-16T18:32:50;17.20;97.30
1075;DHT22;526;51.392;12.448;2022-10-16T18:35:31;17.20;97.30
1075;DHT22;526;51.392;12.448;2022-10-16T18:38:11;17.10;97.30